createdAt,value
2019-01-03T00:01:07.842Z,5.43
2019-01-03T00:04:02.581Z,3.17
2019-01-03T00:06:51.172Z,6.93
2019-01-03T00:09:41.677Z,3.27
2019-01-03T00:12:32.291Z,4.67
2019-01-03T00:15:28.056Z,3.90
2019-01-03T00:18:19.324Z,6.00
2019-01-03T00:21:12.086Z,7.03
2019-01-03T00:24:11.433Z,4.00
2019-01-03T00:26:58.605Z,3.60
2019-01-03T00:30:01.521Z,7.93
2019-01-03T00:32:52.836Z,2.67
2019-01-03T00:35:40.834Z,3.37
2019-01-03T00:38:22.320Z,4.27
2019-01-03T00:41:24.042Z,3.00
2019-01-03T00:44:14.359Z,3.67
2019-01-03T00:47:10.073Z,4.43
2019-01-03T00:50:01.400Z,5.37
2019-01-03T00:52:54.239Z,5.80
2019-01-03T00:55:43.333Z,4.60
2019-01-03T00:58:33.827Z,4.20
2019-01-03T01:01:24.029Z,5.70
2019-01-03T01:04:11.124Z,4.53
2019-01-03T01:07:07.646Z,5.40
2019-01-03T01:09:56.157Z,4.13
2019-01-03T01:12:47.322Z,4.80
2019-01-03T01:15:52.350Z,4.97
2019-01-03T01:18:37.230Z,5.50
2019-01-03T01:21:26.666Z,4.90
2019-01-03T01:24:16.233Z,4.23
2019-01-03T01:27:10.538Z,3.27
2019-01-03T01:30:16.277Z,4.77
2019-01-03T01:33:07.250Z,4.80
2019-01-03T01:35:56.051Z,4.07
2019-01-03T01:38:46.506Z,5.77
2019-01-03T01:41:35.651Z,5.33
2019-01-03T01:44:37.068Z,5.17
2019-01-03T01:47:25.854Z,4.50
2019-01-03T01:50:13.119Z,8.63
2019-01-03T01:53:05.413Z,4.43
2019-01-03T01:55:58.612Z,5.47
2019-01-03T01:58:47.422Z,3.77
2019-01-03T02:01:36.594Z,2.50
2019-01-03T02:04:45.642Z,5.23
2019-01-03T02:07:29.040Z,5.40
2019-01-03T02:10:36.883Z,2.83
2019-01-03T02:13:38.075Z,3.60
2019-01-03T02:16:32.931Z,5.90
2019-01-03T02:19:21.639Z,4.27
2019-01-03T02:22:08.671Z,5.40
2019-01-03T02:24:55.951Z,6.70
2019-01-03T02:27:47.507Z,6.20
2019-01-03T02:30:44.356Z,6.13
2019-01-03T02:33:32.834Z,5.33
2019-01-03T02:36:19.884Z,9.63
2019-01-03T02:39:12.576Z,5.97
2019-01-03T02:42:20.158Z,6.20
2019-01-03T02:45:07.811Z,6.50
2019-01-03T02:47:58.990Z,9.47
2019-01-03T02:50:51.768Z,7.73
2019-01-03T02:53:40.710Z,9.57
2019-01-03T02:56:41.270Z,6.43
2019-01-03T02:59:28.542Z,8.93
2019-01-03T03:02:15.457Z,6.67
2019-01-03T03:05:02.816Z,4.33
2019-01-03T03:08:04.546Z,6.03
2019-01-03T03:10:54.145Z,4.93
2019-01-03T03:13:43.345Z,6.33
2019-01-03T03:16:34.239Z,6.03
2019-01-03T03:19:41.379Z,6.93
2019-01-03T03:22:28.922Z,5.70
2019-01-03T03:25:19.165Z,6.27
2019-01-03T03:28:12.467Z,4.97
2019-01-03T03:31:00.090Z,7.23
2019-01-03T03:33:48.172Z,5.83
2019-01-03T03:36:45.564Z,6.83
2019-01-03T03:39:33.576Z,6.23
2019-01-03T03:42:24.454Z,6.33
2019-01-03T03:45:15.882Z,7.63
2019-01-03T03:48:04.857Z,8.50
2019-01-03T03:50:41.759Z,8.03
2019-01-03T03:53:40.047Z,8.30
2019-01-03T03:56:27.340Z,5.60
2019-01-03T03:59:16.363Z,7.40
2019-01-03T04:02:16.414Z,9.10
2019-01-03T04:05:18.049Z,8.80
2019-01-03T04:08:09.160Z,8.07
2019-01-03T04:10:57.179Z,7.00
2019-01-03T04:13:44.949Z,6.13
2019-01-03T04:16:36.402Z,7.87
2019-01-03T04:19:26.751Z,7.17
2019-01-03T04:22:26.066Z,6.13
2019-01-03T04:25:20.004Z,5.60
2019-01-03T04:28:09.977Z,11.47
2019-01-03T04:31:03.903Z,5.27
2019-01-03T04:33:50.582Z,6.53
2019-01-03T04:36:51.997Z,7.87
2019-01-03T04:39:51.283Z,5.77
2019-01-03T04:42:38.168Z,5.80
2019-01-03T04:45:29.529Z,6.40
2019-01-03T04:48:18.130Z,8.70
2019-01-03T04:51:21.082Z,7.90
2019-01-03T04:54:07.999Z,4.87
2019-01-03T04:56:56.741Z,5.83
2019-01-03T04:59:46.085Z,5.83
2019-01-03T05:02:41.586Z,7.57
2019-01-03T05:05:39.403Z,7.90
2019-01-03T05:08:28.827Z,8.40
2019-01-03T05:11:20.696Z,13.27
2019-01-03T05:14:09.580Z,5.83
2019-01-03T05:17:03.666Z,7.53
2019-01-03T05:19:50.859Z,14.67
2019-01-03T05:22:44.426Z,8.37
2019-01-03T05:25:39.317Z,7.37
2019-01-03T05:28:33.666Z,3.90
2019-01-03T05:31:25.949Z,3.47
2019-01-03T05:34:13.504Z,4.50
2019-01-03T05:37:04.871Z,5.23
2019-01-03T05:40:09.924Z,5.47
2019-01-03T05:43:03.221Z,6.00
2019-01-03T05:46:08.597Z,3.60
2019-01-03T05:48:58.691Z,8.00
2019-01-03T05:51:52.646Z,5.23
2019-01-03T05:54:40.429Z,17.80
2019-01-03T05:57:24.881Z,8.33
2019-01-03T06:00:14.126Z,5.80
2019-01-03T06:03:07.238Z,4.57
2019-01-03T06:05:59.467Z,8.00
2019-01-03T06:08:59.121Z,5.73
2019-01-03T06:11:56.872Z,7.07
2019-01-03T06:14:46.713Z,8.53
2019-01-03T06:17:37.720Z,9.63
2019-01-03T06:20:44.581Z,6.17
2019-01-03T06:23:28.326Z,8.73
2019-01-03T06:26:15.807Z,7.07
2019-01-03T06:29:08.044Z,6.57
2019-01-03T06:31:59.408Z,6.90
2019-01-03T06:35:00.221Z,7.77
2019-01-03T06:37:48.643Z,7.17
2019-01-03T06:40:40.481Z,6.33
2019-01-03T06:43:32.679Z,4.60
2019-01-03T06:46:23.329Z,6.63
2019-01-03T06:49:07.410Z,5.53
2019-01-03T06:51:59.095Z,5.97
2019-01-03T06:54:46.165Z,8.43
2019-01-03T06:57:47.054Z,8.13
2019-01-03T07:00:48.966Z,7.33
2019-01-03T07:03:37.014Z,7.23
2019-01-03T07:06:23.530Z,5.27
2019-01-03T07:09:22.977Z,10.13
2019-01-03T07:12:39.760Z,6.60
2019-01-03T07:15:41.777Z,6.77
2019-01-03T07:18:51.246Z,7.33
2019-01-03T07:21:59.293Z,9.93
2019-01-03T07:24:47.503Z,8.83
2019-01-03T07:27:42.094Z,8.90
2019-01-03T07:30:32.302Z,10.10
2019-01-03T07:33:25.453Z,8.57
2019-01-03T07:36:20.585Z,7.23
2019-01-03T07:39:09.964Z,7.43
2019-01-03T07:42:05.353Z,9.17
2019-01-03T07:45:15.102Z,9.60
2019-01-03T07:48:15.026Z,6.30
2019-01-03T07:51:16.197Z,7.80
2019-01-03T07:54:18.050Z,7.40
2019-01-03T07:57:12.565Z,8.23
2019-01-03T08:00:05.253Z,7.90
2019-01-03T08:03:06.671Z,7.87
2019-01-03T08:06:01.060Z,6.23
2019-01-03T08:08:48.008Z,7.97
2019-01-03T08:12:14.297Z,8.83
2019-01-03T08:15:15.255Z,11.10
2019-01-03T08:18:29.907Z,9.87
2019-01-03T08:21:48.050Z,12.10
2019-01-03T08:25:17.505Z,18.40
2019-01-03T08:28:09.760Z,10.43
2019-01-03T08:30:58.073Z,9.03
2019-01-03T08:33:54.744Z,5.43
2019-01-03T08:36:48.323Z,5.60
2019-01-03T08:39:48.605Z,7.63
2019-01-03T08:42:35.610Z,7.00
2019-01-03T08:45:38.782Z,4.23
2019-01-03T08:48:42.177Z,5.17
2019-01-03T08:51:39.131Z,6.87
2019-01-03T08:54:32.672Z,4.63
2019-01-03T08:57:22.062Z,9.50
2019-01-03T09:00:08.934Z,8.10
2019-01-03T09:03:00.133Z,7.73
2019-01-03T09:05:54.039Z,8.43
2019-01-03T09:08:51.800Z,9.37
2019-01-03T09:11:49.114Z,7.87
2019-01-03T09:14:50.502Z,10.63
2019-01-03T09:17:37.300Z,6.73
2019-01-03T09:20:40.012Z,8.13
2019-01-03T09:23:30.311Z,6.17
2019-01-03T09:26:28.905Z,4.93
2019-01-03T09:29:23.154Z,6.80
2019-01-03T09:32:23.758Z,6.27
2019-01-03T09:35:14.271Z,7.43
2019-01-03T09:38:11.921Z,8.80
2019-01-03T09:41:01.493Z,8.00
2019-01-03T09:44:04.647Z,7.83
2019-01-03T09:46:40.972Z,8.47
2019-01-03T09:49:11.089Z,9.93
2019-01-03T09:51:41.703Z,9.90
2019-01-03T09:54:12.910Z,9.40
2019-01-03T09:56:42.780Z,11.57
2019-01-03T09:59:13.445Z,8.03
2019-01-03T10:01:43.396Z,10.53
2019-01-03T10:04:30.539Z,16.03
2019-01-03T10:07:11.415Z,44.23
2019-01-03T10:09:44.073Z,20.60
2019-01-03T10:12:15.904Z,14.30
2019-01-03T10:14:51.129Z,12.27
2019-01-03T10:17:22.992Z,10.20
2019-01-03T10:19:52.698Z,15.13
2019-01-03T10:22:32.980Z,12.13
2019-01-03T10:25:03.359Z,11.23
2019-01-03T10:27:32.640Z,12.87
2019-01-03T10:30:05.867Z,12.90
2019-01-03T10:32:36.037Z,11.20
2019-01-03T10:35:12.036Z,10.43
2019-01-03T10:37:44.048Z,13.30
2019-01-03T10:40:13.950Z,10.20
2019-01-03T10:42:46.220Z,9.07
2019-01-03T10:45:20.634Z,10.03
2019-01-03T10:47:49.903Z,11.60
2019-01-03T10:50:19.133Z,9.47
2019-01-03T10:52:48.399Z,11.97
2019-01-03T10:55:19.650Z,10.07
2019-01-03T10:57:48.907Z,12.40
2019-01-03T11:00:18.174Z,9.10
2019-01-03T11:02:48.267Z,9.90
2019-01-03T11:05:17.492Z,10.80
2019-01-03T11:07:46.752Z,12.60
2019-01-03T11:10:15.957Z,9.70
2019-01-03T11:12:45.405Z,9.47
2019-01-03T11:15:14.647Z,6.57
2019-01-03T11:17:44.960Z,8.53
2019-01-03T11:20:17.886Z,11.00
2019-01-03T11:22:48.604Z,10.20
2019-01-03T11:25:17.845Z,8.77
2019-01-03T11:27:47.073Z,6.93
2019-01-03T11:30:16.906Z,8.80
2019-01-03T11:32:49.694Z,13.07
2019-01-03T11:35:23.130Z,8.50
2019-01-03T11:37:52.991Z,14.10
2019-01-03T11:40:24.164Z,11.20
2019-01-03T11:42:57.889Z,12.80
2019-01-03T11:45:30.493Z,16.40
2019-01-03T11:48:00.315Z,13.37
2019-01-03T11:50:33.367Z,13.43
2019-01-03T11:53:02.876Z,14.23
2019-01-03T11:55:37.546Z,14.87
2019-01-03T11:58:11.704Z,15.97
2019-01-03T12:00:43.073Z,13.13
2019-01-03T12:03:13.529Z,15.47
2019-01-03T12:05:49.151Z,16.33
2019-01-03T12:08:20.152Z,24.47
2019-01-03T12:10:53.052Z,24.43
2019-01-03T12:13:23.053Z,23.10
2019-01-03T12:15:55.462Z,20.53
2019-01-03T12:18:32.743Z,19.63
2019-01-03T12:21:06.921Z,20.07
2019-01-03T12:23:40.995Z,19.03
2019-01-03T12:26:12.196Z,20.40
2019-01-03T12:28:44.439Z,16.87
2019-01-03T12:31:15.206Z,13.80
2019-01-03T12:33:51.427Z,13.73
2019-01-03T12:36:24.506Z,12.17
2019-01-03T12:38:54.661Z,14.30
2019-01-03T12:41:54.623Z,18.40
2019-01-03T12:44:32.396Z,14.33
2019-01-03T12:47:05.245Z,14.43
2019-01-03T12:49:40.435Z,18.13
2019-01-03T12:52:11.981Z,19.50
2019-01-03T12:54:41.815Z,15.77
2019-01-03T12:57:16.942Z,17.53
2019-01-03T12:59:49.865Z,18.67
2019-01-03T13:02:19.503Z,13.13
2019-01-03T13:04:50.120Z,24.77
2019-01-03T13:07:21.058Z,13.20
2019-01-03T13:09:50.337Z,14.13
2019-01-03T13:12:24.329Z,13.20
2019-01-03T13:14:56.654Z,14.03
2019-01-03T13:17:25.938Z,21.67
2019-01-03T13:19:57.845Z,28.30
2019-01-03T13:22:27.403Z,23.40
2019-01-03T13:24:56.988Z,18.13
2019-01-03T13:27:26.254Z,14.27
2019-01-03T13:29:55.490Z,20.63
2019-01-03T13:32:25.112Z,19.97
2019-01-03T13:34:55.161Z,17.73
2019-01-03T13:37:24.445Z,41.93
2019-01-03T13:39:53.666Z,17.37
2019-01-03T13:42:24.956Z,16.17
2019-01-03T13:44:54.178Z,25.40
2019-01-03T13:47:23.767Z,15.23
2019-01-03T13:49:53.306Z,20.93
2019-01-03T13:52:26.876Z,17.77
2019-01-03T13:55:00.376Z,17.13
2019-01-03T13:57:30.278Z,26.07
2019-01-03T14:00:02.861Z,16.43
2019-01-03T14:02:32.518Z,17.37
2019-01-03T14:05:07.398Z,22.07
2019-01-03T14:07:37.552Z,20.07
2019-01-03T14:10:07.592Z,29.37
2019-01-03T14:12:38.905Z,20.83
2019-01-03T14:15:10.833Z,18.87
2019-01-03T14:17:43.470Z,17.47
2019-01-03T14:20:16.143Z,16.90
2019-01-03T14:22:45.433Z,17.90
2019-01-03T14:25:14.973Z,18.07
2019-01-03T14:27:45.338Z,19.77
2019-01-03T14:30:15.150Z,22.70
2019-01-03T14:32:47.549Z,17.93
2019-01-03T14:35:17.098Z,18.63
2019-01-03T14:37:46.362Z,17.13
2019-01-03T14:40:15.880Z,17.73
2019-01-03T14:42:54.861Z,16.80
2019-01-03T14:45:24.658Z,19.30
2019-01-03T14:47:53.943Z,19.70
2019-01-03T14:50:24.082Z,51.23
2019-01-03T14:52:53.643Z,21.57
2019-01-03T14:55:25.623Z,25.30
2019-01-03T14:57:55.768Z,32.27
2019-01-03T15:00:26.369Z,24.80
2019-01-03T15:02:55.612Z,23.80
2019-01-03T15:05:28.530Z,35.57
2019-01-03T15:07:57.794Z,18.80
2019-01-03T15:10:29.098Z,18.10
2019-01-03T15:13:03.177Z,17.20
2019-01-03T15:15:34.967Z,19.67
2019-01-03T15:18:07.066Z,24.73
2019-01-03T15:20:36.894Z,18.73
2019-01-03T15:23:06.429Z,16.73
2019-01-03T15:25:37.977Z,17.67
2019-01-03T15:28:09.858Z,18.03
2019-01-03T15:30:39.376Z,19.10
2019-01-03T15:33:10.340Z,23.80
2019-01-03T15:35:40.406Z,32.63
2019-01-03T15:38:11.019Z,24.10
2019-01-03T15:40:41.111Z,18.87
2019-01-03T15:43:12.668Z,18.87
2019-01-03T15:45:42.773Z,19.60
2019-01-03T15:48:12.567Z,25.70
2019-01-03T15:50:42.286Z,24.17
2019-01-03T15:53:11.924Z,23.03
2019-01-03T15:55:45.779Z,16.97
2019-01-03T15:58:15.638Z,20.73
2019-01-03T16:00:44.892Z,22.07
2019-01-03T16:03:15.936Z,20.73
2019-01-03T16:05:45.519Z,23.50
2019-01-03T16:08:16.865Z,26.27
2019-01-03T16:10:46.470Z,20.07
2019-01-03T16:13:17.986Z,29.07
2019-01-03T16:15:47.607Z,28.93
2019-01-03T16:18:20.334Z,27.13
2019-01-03T16:20:53.276Z,24.93
2019-01-03T16:23:25.476Z,27.67
2019-01-03T16:25:58.798Z,24.77
2019-01-03T16:28:28.825Z,21.53
2019-01-03T16:31:02.984Z,23.63
2019-01-03T16:33:34.455Z,29.10
2019-01-03T16:36:09.715Z,26.43
2019-01-03T16:38:53.957Z,23.03
2019-01-03T16:41:24.686Z,24.33
2019-01-03T16:43:53.934Z,27.30
2019-01-03T16:46:23.199Z,24.17
2019-01-03T16:48:53.917Z,25.70
2019-01-03T16:51:23.236Z,28.23
2019-01-03T16:53:52.798Z,26.43
2019-01-03T16:56:22.068Z,27.70
2019-01-03T16:58:53.097Z,33.73
2019-01-03T17:01:22.729Z,29.70
2019-01-03T17:03:52.966Z,30.43
2019-01-03T17:06:22.262Z,31.70
2019-01-03T17:08:51.517Z,31.30
2019-01-03T17:11:22.330Z,33.67
2019-01-03T17:13:58.880Z,33.37
2019-01-03T17:16:37.871Z,31.40
2019-01-03T17:19:08.319Z,31.93
2019-01-03T17:21:42.523Z,31.50
2019-01-03T17:24:12.885Z,42.03
2019-01-03T17:26:58.107Z,45.27
2019-01-03T17:29:31.078Z,47.63
2019-01-03T17:32:00.613Z,40.73
2019-01-03T17:34:30.596Z,36.97
2019-01-03T17:36:59.847Z,35.23
2019-01-03T17:39:32.625Z,63.07
2019-01-03T17:42:07.301Z,31.00
2019-01-03T17:44:48.164Z,29.23
2019-01-03T17:47:25.567Z,33.27
2019-01-03T17:49:55.258Z,24.83
2019-01-03T17:52:31.528Z,22.00
2019-01-03T17:55:01.815Z,25.60
2019-01-03T17:57:31.866Z,33.33
2019-01-03T18:00:03.805Z,28.77
2019-01-03T18:02:33.148Z,26.03
2019-01-03T18:05:02.534Z,31.07
2019-01-03T18:07:31.998Z,25.87
2019-01-03T18:10:01.251Z,25.50
2019-01-03T18:12:31.149Z,33.57
2019-01-03T18:15:00.405Z,29.53
2019-01-03T18:17:30.787Z,26.60
2019-01-03T18:20:02.215Z,34.77
2019-01-03T18:22:31.631Z,29.07
2019-01-03T18:25:00.913Z,37.57
2019-01-03T18:27:33.307Z,30.53
2019-01-03T18:30:03.981Z,30.53
2019-01-03T18:32:33.863Z,32.57
2019-01-03T18:35:04.215Z,30.53
2019-01-03T18:37:33.649Z,40.07
2019-01-03T18:40:02.907Z,39.00
2019-01-03T18:42:32.153Z,42.67
2019-01-03T18:45:01.426Z,52.67
2019-01-03T18:47:30.646Z,43.43
2019-01-03T18:50:00.305Z,33.73
2019-01-03T18:52:31.855Z,22.93
2019-01-03T18:55:01.924Z,27.10
2019-01-03T18:57:33.233Z,22.00
2019-01-03T19:00:02.459Z,29.50
2019-01-03T19:02:31.991Z,22.97
2019-01-03T19:05:04.417Z,23.27
2019-01-03T19:07:33.659Z,31.57
2019-01-03T19:10:03.204Z,36.07
2019-01-03T19:12:32.470Z,33.17
2019-01-03T19:15:02.793Z,31.27
2019-01-03T19:17:32.050Z,30.00
2019-01-03T19:20:01.310Z,29.07
2019-01-03T19:22:30.839Z,18.43
2019-01-03T19:25:00.366Z,20.70
2019-01-03T19:27:29.902Z,23.20
2019-01-03T19:29:59.935Z,22.17
2019-01-03T19:32:29.201Z,21.23
2019-01-03T19:34:58.551Z,25.07
2019-01-03T19:37:38.489Z,21.77
2019-01-03T19:40:24.832Z,18.83
2019-01-03T19:42:55.228Z,20.30
2019-01-03T19:45:25.753Z,25.07
2019-01-03T19:47:57.680Z,22.27
2019-01-03T19:50:30.039Z,18.77
2019-01-03T19:53:01.772Z,21.83
2019-01-03T19:55:32.016Z,21.30
2019-01-03T19:58:01.863Z,18.63
2019-01-03T20:00:31.091Z,20.03
2019-01-03T20:03:00.666Z,16.60
2019-01-03T20:05:30.503Z,18.33
2019-01-03T20:08:02.073Z,20.43
2019-01-03T20:10:32.705Z,24.80
2019-01-03T20:13:02.426Z,18.87
2019-01-03T20:15:34.144Z,19.50
2019-01-03T20:18:03.398Z,27.83
2019-01-03T20:20:33.588Z,23.57
2019-01-03T20:23:04.301Z,26.27
2019-01-03T20:25:34.599Z,23.83
2019-01-03T20:28:04.957Z,27.20
2019-01-03T20:30:34.227Z,43.80
2019-01-03T20:33:04.807Z,86.13
2019-01-03T20:35:35.432Z,21.93
2019-01-03T20:38:05.503Z,24.00
2019-01-03T20:40:34.924Z,43.07
2019-01-03T20:43:04.316Z,66.33
2019-01-03T20:45:34.829Z,56.77
2019-01-03T20:48:04.420Z,23.17
2019-01-03T20:50:33.699Z,21.00
2019-01-03T20:53:03.292Z,20.60
2019-01-03T20:55:33.252Z,22.50
2019-01-03T20:58:03.722Z,28.97
2019-01-03T21:00:33.960Z,21.73
2019-01-03T21:03:07.906Z,22.87
2019-01-03T21:05:40.088Z,26.63
2019-01-03T21:08:09.647Z,25.23
2019-01-03T21:10:38.996Z,23.03
2019-01-03T21:13:09.246Z,22.33
2019-01-03T21:15:39.218Z,22.97
2019-01-03T21:18:08.877Z,22.70
2019-01-03T21:20:41.159Z,23.17
2019-01-03T21:23:10.518Z,22.27
2019-01-03T21:25:39.841Z,24.63
2019-01-03T21:28:09.191Z,22.20
2019-01-03T21:30:39.006Z,19.60
2019-01-03T21:33:08.680Z,21.53
2019-01-03T21:35:37.953Z,22.43
2019-01-03T21:38:10.704Z,20.73
2019-01-03T21:40:52.480Z,22.80
2019-01-03T21:43:28.822Z,23.80
2019-01-03T21:45:58.511Z,20.10
2019-01-03T21:48:44.352Z,23.03
2019-01-03T21:51:15.941Z,24.33
2019-01-03T21:53:50.665Z,21.70
2019-01-03T21:56:24.660Z,19.33
2019-01-03T21:58:53.902Z,18.53
2019-01-03T22:01:23.623Z,20.83
2019-01-03T22:03:54.454Z,19.17
2019-01-03T22:06:24.470Z,20.40
2019-01-03T22:08:54.046Z,24.13
2019-01-03T22:11:24.228Z,19.90
2019-01-03T22:13:57.725Z,17.27
2019-01-03T22:16:27.564Z,21.77
2019-01-03T22:18:58.019Z,20.30
2019-01-03T22:21:28.027Z,20.53
2019-01-03T22:24:07.869Z,20.47
2019-01-03T22:26:39.049Z,18.40
2019-01-03T22:29:08.297Z,18.30
2019-01-03T22:31:40.378Z,17.60
2019-01-03T22:34:17.929Z,20.33
2019-01-03T22:36:48.130Z,19.13
2019-01-03T22:39:17.365Z,19.10
2019-01-03T22:41:46.880Z,15.40
2019-01-03T22:44:17.280Z,17.23
2019-01-03T22:46:50.649Z,16.47
2019-01-03T22:49:45.584Z,22.03
2019-01-03T22:52:22.353Z,19.97
2019-01-03T22:54:52.503Z,23.13
2019-01-03T22:57:25.783Z,21.03
2019-01-03T23:00:00.750Z,52.83
2019-01-03T23:02:47.041Z,45.17
2019-01-03T23:05:17.726Z,19.77
2019-01-03T23:07:47.417Z,22.70
2019-01-03T23:10:17.669Z,16.03
2019-01-03T23:12:47.197Z,16.73
2019-01-03T23:15:16.376Z,13.37
2019-01-03T23:17:46.029Z,14.87
2019-01-03T23:20:16.711Z,15.77
2019-01-03T23:22:47.097Z,15.73
2019-01-03T23:25:17.871Z,13.00
2019-01-03T23:27:47.471Z,15.03
2019-01-03T23:30:20.295Z,17.60
2019-01-03T23:32:49.791Z,13.30
2019-01-03T23:35:19.568Z,15.37
2019-01-03T23:37:50.484Z,17.67
2019-01-03T23:40:20.537Z,21.00
2019-01-03T23:42:49.819Z,82.80
2019-01-03T23:45:26.280Z,85.17
2019-01-03T23:48:01.823Z,43.47
2019-01-03T23:50:38.747Z,86.77
2019-01-03T23:53:08.023Z,187.43
2019-01-03T23:55:42.005Z,55.20
2019-01-03T23:58:11.570Z,18.47
